createdAt,value
2016-09-04T00:00:38.783Z,0.00
2016-09-04T00:01:39.270Z,0.00
2016-09-04T00:02:39.778Z,0.00
2016-09-04T00:03:40.294Z,0.00
2016-09-04T00:04:40.822Z,0.00
2016-09-04T00:05:41.318Z,0.00
2016-09-04T00:06:41.983Z,0.00
2016-09-04T00:07:42.348Z,0.00
2016-09-04T00:08:42.863Z,0.00
2016-09-04T00:09:43.376Z,0.00
2016-09-04T00:10:43.893Z,0.00
2016-09-04T00:11:44.573Z,0.00
2016-09-04T00:12:44.923Z,0.00
2016-09-04T00:13:45.433Z,0.00
2016-09-04T00:14:45.948Z,0.00
2016-09-04T00:15:46.608Z,0.00
2016-09-04T00:16:46.988Z,0.00
2016-09-04T00:17:47.479Z,0.00
2016-09-04T00:18:48.743Z,0.00
2016-09-04T00:19:48.503Z,0.00
2016-09-04T00:20:49.021Z,0.00
2016-09-04T00:21:49.532Z,0.00
2016-09-04T00:22:50.045Z,0.00
2016-09-04T00:23:50.555Z,0.00
2016-09-04T00:24:51.221Z,0.00
2016-09-04T00:25:51.585Z,0.00
2016-09-04T00:26:52.128Z,0.00
2016-09-04T00:27:52.609Z,0.00
2016-09-04T00:28:53.123Z,0.00
2016-09-04T00:29:53.633Z,0.00
2016-09-04T00:30:54.147Z,0.00
2016-09-04T00:31:54.672Z,0.00
2016-09-04T00:32:55.175Z,0.00
2016-09-04T00:33:55.688Z,0.00
2016-09-04T00:34:57.409Z,0.00
2016-09-04T00:35:56.707Z,0.00
2016-09-04T00:36:57.222Z,0.00
2016-09-04T00:37:57.732Z,0.00
2016-09-04T00:38:58.253Z,0.00
2016-09-04T00:39:58.760Z,0.00
2016-09-04T00:40:59.289Z,0.00
2016-09-04T00:41:59.783Z,0.00
2016-09-04T00:43:00.298Z,0.00
2016-09-04T00:44:00.831Z,0.00
2016-09-04T00:45:01.327Z,0.00
2016-09-04T00:46:01.841Z,0.00
2016-09-04T00:47:02.365Z,0.00
2016-09-04T00:48:02.892Z,0.00
2016-09-04T00:49:03.399Z,0.00
2016-09-04T00:50:03.914Z,0.00
2016-09-04T00:51:04.422Z,0.00
2016-09-04T00:52:04.935Z,0.00
2016-09-04T00:53:05.451Z,0.00
2016-09-04T00:54:05.959Z,0.00
2016-09-04T00:55:06.617Z,0.00
2016-09-04T00:56:06.980Z,0.00
2016-09-04T00:57:07.642Z,0.00
2016-09-04T00:58:07.997Z,0.00
2016-09-04T00:59:08.507Z,0.00
2016-09-04T01:00:09.017Z,0.00
2016-09-04T01:01:09.522Z,0.00
2016-09-04T01:02:10.034Z,0.00
2016-09-04T01:03:10.547Z,0.00
2016-09-04T01:04:11.059Z,0.00
2016-09-04T01:05:11.574Z,0.00
2016-09-04T01:06:12.084Z,0.00
2016-09-04T01:07:12.592Z,0.00
2016-09-04T01:08:13.107Z,0.00
2016-09-04T01:09:13.770Z,0.00
2016-09-04T01:10:14.131Z,0.00
2016-09-04T01:11:14.648Z,0.00
2016-09-04T01:12:15.158Z,0.00
2016-09-04T01:13:15.669Z,0.00
2016-09-04T01:14:16.209Z,0.00
2016-09-04T01:15:16.692Z,0.00
2016-09-04T01:16:17.203Z,0.00
2016-09-04T01:17:17.712Z,0.00
2016-09-04T01:18:18.374Z,0.00
2016-09-04T01:19:18.757Z,0.00
2016-09-04T01:20:19.246Z,0.00
2016-09-04T01:21:19.762Z,0.00
2016-09-04T01:22:20.423Z,0.00
2016-09-04T01:23:20.786Z,0.00
2016-09-04T01:24:23.274Z,0.00
2016-09-04T01:25:21.825Z,0.00
2016-09-04T01:26:22.334Z,0.00
2016-09-04T01:27:22.995Z,0.00
2016-09-04T01:28:23.502Z,0.00
2016-09-04T01:29:23.863Z,0.00
2016-09-04T01:30:24.376Z,0.00
2016-09-04T01:31:24.888Z,0.00
2016-09-04T01:32:25.398Z,0.00
2016-09-04T01:33:25.910Z,0.00
2016-09-04T01:34:26.424Z,0.00
2016-09-04T01:35:26.931Z,0.00
2016-09-04T01:36:27.444Z,0.00
2016-09-04T01:37:27.958Z,0.00
2016-09-04T01:38:28.468Z,0.00
2016-09-04T01:39:28.984Z,0.00
2016-09-04T01:40:29.490Z,0.00
2016-09-04T01:41:30.025Z,0.00
2016-09-04T01:42:30.540Z,0.00
2016-09-04T01:43:31.022Z,0.00
2016-09-04T01:44:31.540Z,0.00
2016-09-04T01:45:32.072Z,0.00
2016-09-04T01:46:32.563Z,0.00
2016-09-04T01:47:33.078Z,0.00
2016-09-04T01:48:33.592Z,0.00
2016-09-04T01:49:34.090Z,0.00
2016-09-04T01:50:34.603Z,0.00
2016-09-04T01:51:35.125Z,0.00
2016-09-04T01:52:35.777Z,0.00
2016-09-04T01:53:36.141Z,0.00
2016-09-04T01:54:37.852Z,0.00
2016-09-04T01:55:37.160Z,0.00
2016-09-04T01:56:37.676Z,0.00
2016-09-04T01:57:38.199Z,0.00
2016-09-04T01:58:38.708Z,0.00
2016-09-04T01:59:39.226Z,0.00
2016-09-04T02:00:39.738Z,0.00
2016-09-04T02:01:40.257Z,0.00
2016-09-04T02:02:40.766Z,0.00
2016-09-04T02:03:41.422Z,0.00
2016-09-04T02:04:41.788Z,0.00
2016-09-04T02:05:42.454Z,0.00
2016-09-04T02:06:42.815Z,0.00
2016-09-04T02:07:43.333Z,0.00
2016-09-04T02:08:43.847Z,0.00
2016-09-04T02:09:44.351Z,0.00
2016-09-04T02:10:44.868Z,0.00
2016-09-04T02:11:45.378Z,0.00
2016-09-04T02:12:45.889Z,0.00
2016-09-04T02:13:46.426Z,0.00
2016-09-04T02:14:46.913Z,0.00
2016-09-04T02:15:47.430Z,0.00
2016-09-04T02:16:47.937Z,0.00
2016-09-04T02:17:48.454Z,0.00
2016-09-04T02:18:48.987Z,0.00
2016-09-04T02:19:49.467Z,0.00
2016-09-04T02:20:49.979Z,0.00
2016-09-04T02:21:50.648Z,0.00
2016-09-04T02:22:51.150Z,0.00
2016-09-04T02:23:51.512Z,0.00
2016-09-04T02:24:52.028Z,0.00
2016-09-04T02:25:52.540Z,0.00
2016-09-04T02:26:53.048Z,0.00
2016-09-04T02:27:53.562Z,0.00
2016-09-04T02:28:54.073Z,0.00
2016-09-04T02:29:54.588Z,0.00
2016-09-04T02:30:55.244Z,0.00
2016-09-04T02:31:55.611Z,0.00
2016-09-04T02:32:56.140Z,0.00
2016-09-04T02:33:57.385Z,0.00
2016-09-04T02:34:57.173Z,0.00
2016-09-04T02:35:57.693Z,0.00
2016-09-04T02:36:58.184Z,0.00
2016-09-04T02:37:58.694Z,0.00
2016-09-04T02:38:59.208Z,0.00
2016-09-04T02:39:59.718Z,0.00
2016-09-04T02:41:00.227Z,0.00
2016-09-04T02:42:00.740Z,0.00
2016-09-04T02:43:01.251Z,0.00
2016-09-04T02:44:01.766Z,0.00
2016-09-04T02:45:02.278Z,0.00
2016-09-04T02:46:02.798Z,0.00
2016-09-04T02:47:03.308Z,0.00
2016-09-04T02:48:03.852Z,0.00
2016-09-04T02:49:04.481Z,0.00
2016-09-04T02:50:04.841Z,0.00
2016-09-04T02:51:05.378Z,0.00
2016-09-04T02:52:06.022Z,0.00
2016-09-04T02:53:06.381Z,0.00
2016-09-04T02:54:06.919Z,0.00
2016-09-04T02:55:07.406Z,0.00
2016-09-04T02:56:07.925Z,0.00
2016-09-04T02:57:08.430Z,0.00
2016-09-04T02:58:08.941Z,0.00
2016-09-04T02:59:09.459Z,0.00
2016-09-04T03:00:09.964Z,0.00
2016-09-04T03:01:10.481Z,0.00
2016-09-04T03:02:11.008Z,0.00
2016-09-04T03:03:11.500Z,0.00
2016-09-04T03:04:12.015Z,0.00
2016-09-04T03:05:13.873Z,0.00
2016-09-04T03:06:13.037Z,0.00
2016-09-04T03:07:13.559Z,0.00
2016-09-04T03:08:14.217Z,0.00
2016-09-04T03:09:14.582Z,0.00
2016-09-04T03:10:15.096Z,0.00
2016-09-04T03:11:15.614Z,0.00
2016-09-04T03:12:16.168Z,0.00
2016-09-04T03:13:16.803Z,0.00
2016-09-04T03:14:17.166Z,0.00
2016-09-04T03:15:17.675Z,0.00
2016-09-04T03:16:18.192Z,0.00
2016-09-04T03:17:18.702Z,0.00
2016-09-04T03:18:19.230Z,0.00
2016-09-04T03:19:19.736Z,0.00
2016-09-04T03:20:20.237Z,0.00
2016-09-04T03:21:20.749Z,0.00
2016-09-04T03:22:21.271Z,0.00
2016-09-04T03:23:21.775Z,0.00
2016-09-04T03:24:22.289Z,0.00
2016-09-04T03:25:22.799Z,0.00
2016-09-04T03:26:23.315Z,0.00
2016-09-04T03:27:23.825Z,0.00
2016-09-04T03:28:24.341Z,0.00
2016-09-04T03:29:24.846Z,0.00
2016-09-04T03:30:25.364Z,0.00
2016-09-04T03:31:25.873Z,0.00
2016-09-04T03:32:26.534Z,0.00
2016-09-04T03:33:26.897Z,0.00
2016-09-04T03:34:27.561Z,0.00
2016-09-04T03:35:27.926Z,0.00
2016-09-04T03:36:28.435Z,0.00
2016-09-04T03:37:28.945Z,0.00
2016-09-04T03:38:29.455Z,0.00
2016-09-04T03:39:29.973Z,0.00
2016-09-04T03:40:30.482Z,0.00
2016-09-04T03:41:31.143Z,0.00
2016-09-04T03:42:31.526Z,0.00
2016-09-04T03:43:32.167Z,0.00
2016-09-04T03:44:32.531Z,0.00
2016-09-04T03:45:33.039Z,0.00
2016-09-04T03:46:33.574Z,0.00
2016-09-04T03:47:34.068Z,0.00
2016-09-04T03:48:34.586Z,0.00
2016-09-04T03:49:35.093Z,0.00
2016-09-04T03:50:35.759Z,0.00
2016-09-04T03:51:36.122Z,0.00
2016-09-04T03:52:36.628Z,0.00
2016-09-04T03:53:37.140Z,0.00
2016-09-04T03:54:37.681Z,0.00
2016-09-04T03:55:38.175Z,0.00
2016-09-04T03:56:38.674Z,0.00
2016-09-04T03:57:39.187Z,0.00
2016-09-04T03:58:39.695Z,0.00
2016-09-04T03:59:40.207Z,0.00
2016-09-04T04:00:40.717Z,0.00
2016-09-04T04:01:41.228Z,1.00
2016-09-04T04:02:41.739Z,1.00
2016-09-04T04:03:42.248Z,1.00
2016-09-04T04:04:42.765Z,1.00
2016-09-04T04:05:43.268Z,1.00
2016-09-04T04:06:43.932Z,1.00
2016-09-04T04:07:44.445Z,1.00
2016-09-04T04:08:44.819Z,1.00
2016-09-04T04:09:45.354Z,1.00
2016-09-04T04:10:45.836Z,1.00
2016-09-04T04:11:46.345Z,1.00
2016-09-04T04:12:46.868Z,1.00
2016-09-04T04:13:47.366Z,1.00
2016-09-04T04:14:47.905Z,1.00
2016-09-04T04:15:48.420Z,2.00
2016-09-04T04:16:48.901Z,2.00
2016-09-04T04:17:49.566Z,3.00
2016-09-04T04:18:50.074Z,3.00
2016-09-04T04:19:50.432Z,4.00
2016-09-04T04:20:50.947Z,5.00
2016-09-04T04:21:51.486Z,6.00
2016-09-04T04:22:51.973Z,8.00
2016-09-04T04:23:52.640Z,10.00
2016-09-04T04:24:53.003Z,11.00
2016-09-04T04:25:53.513Z,13.00
2016-09-04T04:26:54.023Z,15.00
2016-09-04T04:27:54.542Z,17.00
2016-09-04T04:28:55.054Z,20.00
2016-09-04T04:29:55.558Z,23.00
2016-09-04T04:30:56.222Z,27.00
2016-09-04T04:31:56.587Z,32.00
2016-09-04T04:32:57.103Z,40.00
2016-09-04T04:33:57.610Z,46.00
2016-09-04T04:34:58.122Z,50.00
2016-09-04T04:35:58.788Z,55.00
2016-09-04T04:36:59.142Z,61.00
2016-09-04T04:37:59.658Z,69.00
2016-09-04T04:39:00.170Z,740.00
2016-09-04T04:40:00.682Z,80.00
2016-09-04T04:41:01.189Z,84.00
2016-09-04T04:42:01.703Z,88.00
2016-09-04T04:43:02.213Z,89.00
2016-09-04T04:44:02.729Z,91.00
2016-09-04T04:45:03.242Z,95.00
2016-09-04T04:46:03.902Z,101.00
2016-09-04T04:47:04.263Z,114.00
2016-09-04T04:48:04.794Z,125.00
2016-09-04T04:49:06.336Z,135.00
2016-09-04T04:50:05.795Z,152.00
2016-09-04T04:51:06.309Z,170.00
2016-09-04T04:52:06.818Z,173.00
2016-09-04T04:53:07.332Z,182.00
2016-09-04T04:54:07.840Z,211.00
2016-09-04T04:55:08.354Z,257.00
2016-09-04T04:56:09.011Z,308.00
2016-09-04T04:57:09.376Z,358.00
2016-09-04T04:58:09.892Z,400.00
2016-09-04T04:59:10.409Z,426.00
2016-09-04T05:00:10.934Z,431.00
2016-09-04T05:01:11.441Z,431.00
2016-09-04T05:02:11.955Z,420.00
2016-09-04T05:03:12.471Z,404.00
2016-09-04T05:04:12.976Z,412.00
2016-09-04T05:05:13.486Z,457.00
2016-09-04T05:06:13.997Z,523.00
2016-09-04T05:07:14.514Z,560.00
2016-09-04T05:08:15.026Z,582.00
2016-09-04T05:09:15.542Z,602.00
2016-09-04T05:10:16.050Z,605.00
2016-09-04T05:11:16.587Z,602.00
2016-09-04T05:12:17.078Z,588.00
2016-09-04T05:13:17.586Z,601.00
2016-09-04T05:14:18.098Z,641.00
2016-09-04T05:15:18.650Z,689.00
2016-09-04T05:16:19.129Z,749.00
2016-09-04T05:17:19.635Z,872.00
2016-09-04T05:18:20.175Z,999.00
2016-09-04T05:19:20.666Z,999.00
2016-09-04T05:20:21.172Z,999.00
2016-09-04T05:21:21.689Z,999.00
2016-09-04T05:22:22.198Z,999.00
2016-09-04T05:23:22.712Z,999.00
2016-09-04T05:24:23.223Z,999.00
2016-09-04T05:25:23.735Z,999.00
2016-09-04T05:26:24.249Z,999.00
2016-09-04T05:27:24.764Z,999.00
2016-09-04T05:28:25.274Z,999.00
2016-09-04T05:29:25.783Z,999.00
2016-09-04T05:30:26.299Z,999.00
2016-09-04T05:31:26.826Z,999.00
2016-09-04T05:32:27.336Z,999.00
2016-09-04T05:33:27.844Z,999.00
2016-09-04T05:34:28.357Z,999.00
2016-09-04T05:35:28.876Z,999.00
2016-09-04T05:36:29.391Z,999.00
2016-09-04T05:37:29.943Z,999.00
2016-09-04T05:38:30.418Z,999.00
2016-09-04T05:39:30.928Z,999.00
2016-09-04T05:40:31.446Z,999.00
2016-09-04T05:41:32.116Z,999.00
2016-09-04T05:42:32.468Z,999.00
2016-09-04T05:43:32.996Z,999.00
2016-09-04T05:44:33.490Z,999.00
2016-09-04T05:45:34.005Z,999.00
2016-09-04T05:46:34.513Z,999.00
2016-09-04T05:47:35.027Z,999.00
2016-09-04T05:48:35.538Z,999.00
2016-09-04T05:49:36.052Z,999.00
2016-09-04T05:50:36.561Z,999.00
2016-09-04T05:51:37.220Z,999.00
2016-09-04T05:52:37.583Z,999.00
2016-09-04T05:53:38.099Z,999.00
2016-09-04T05:54:38.789Z,999.00
2016-09-04T05:55:39.140Z,999.00
2016-09-04T05:56:39.632Z,999.00
2016-09-04T05:57:40.147Z,999.00
2016-09-04T05:58:40.680Z,999.00
2016-09-04T05:59:41.164Z,999.00
2016-09-04T06:00:41.678Z,999.00
2016-09-04T06:01:42.188Z,999.00
2016-09-04T06:02:42.697Z,999.00
2016-09-04T06:03:43.207Z,999.00
2016-09-04T06:04:43.717Z,999.00
2016-09-04T06:05:44.229Z,999.00
2016-09-04T06:06:44.746Z,999.00
2016-09-04T06:07:45.255Z,999.00
2016-09-04T06:08:45.766Z,999.00
2016-09-04T06:09:46.278Z,999.00
2016-09-04T06:10:46.791Z,999.00
2016-09-04T06:11:47.309Z,999.00
2016-09-04T06:12:47.822Z,999.00
2016-09-04T06:13:48.346Z,999.00
2016-09-04T06:14:48.853Z,999.00
2016-09-04T06:15:49.514Z,999.00
2016-09-04T06:16:49.875Z,999.00
2016-09-04T06:17:50.387Z,999.00
2016-09-04T06:18:51.053Z,999.00
2016-09-04T06:19:51.409Z,999.00
2016-09-04T06:20:51.914Z,999.00
2016-09-04T06:21:52.432Z,999.00
2016-09-04T06:22:52.938Z,999.00
2016-09-04T06:23:53.451Z,999.00
2016-09-04T06:24:53.963Z,999.00
2016-09-04T06:25:54.474Z,999.00
2016-09-04T06:26:54.983Z,999.00
2016-09-04T06:27:55.497Z,999.00
2016-09-04T06:28:56.007Z,999.00
2016-09-04T06:29:56.517Z,999.00
2016-09-04T06:30:57.032Z,999.00
2016-09-04T06:31:57.547Z,999.00
2016-09-04T06:32:58.055Z,999.00
2016-09-04T06:33:58.568Z,999.00
2016-09-04T06:34:59.078Z,999.00
2016-09-04T06:35:59.592Z,999.00
2016-09-04T06:37:00.111Z,999.00
2016-09-04T06:38:00.617Z,999.00
2016-09-04T06:39:01.124Z,999.00
2016-09-04T06:40:01.648Z,999.00
2016-09-04T06:41:02.149Z,999.00
2016-09-04T06:42:02.664Z,999.00
2016-09-04T06:43:03.181Z,999.00
2016-09-04T06:44:03.687Z,999.00
2016-09-04T06:45:04.200Z,999.00
2016-09-04T06:46:04.712Z,999.00
2016-09-04T06:47:05.224Z,999.00
2016-09-04T06:48:05.738Z,999.00
2016-09-04T06:49:06.257Z,999.00
2016-09-04T06:50:06.770Z,999.00
2016-09-04T06:51:07.283Z,999.00
2016-09-04T06:52:07.795Z,999.00
2016-09-04T06:53:08.306Z,999.00
2016-09-04T06:54:08.832Z,999.00
2016-09-04T06:55:09.478Z,999.00
2016-09-04T06:56:09.993Z,999.00
2016-09-04T06:57:10.354Z,999.00
2016-09-04T06:58:11.019Z,999.00
2016-09-04T06:59:11.380Z,999.00
2016-09-04T07:00:11.917Z,999.00
2016-09-04T07:01:12.405Z,999.00
2016-09-04T07:02:12.919Z,999.00
2016-09-04T07:03:13.422Z,999.00
2016-09-04T07:04:14.844Z,999.00
2016-09-04T07:05:14.448Z,999.00
2016-09-04T07:06:15.111Z,999.00
2016-09-04T07:07:15.617Z,999.00
2016-09-04T07:08:15.984Z,999.00
2016-09-04T07:09:16.644Z,999.00
2016-09-04T07:10:17.009Z,999.00
2016-09-04T07:11:17.519Z,999.00
2016-09-04T07:12:18.029Z,999.00
2016-09-04T07:13:18.548Z,999.00
2016-09-04T07:14:19.206Z,999.00
2016-09-04T07:15:19.566Z,999.00
2016-09-04T07:16:20.228Z,999.00
2016-09-04T07:17:20.597Z,999.00
2016-09-04T07:18:21.103Z,999.00
2016-09-04T07:19:21.624Z,999.00
2016-09-04T07:20:22.150Z,999.00
2016-09-04T07:21:22.641Z,999.00
2016-09-04T07:22:23.155Z,999.00
2016-09-04T07:23:23.672Z,999.00
2016-09-04T07:24:24.190Z,999.00
2016-09-04T07:25:24.701Z,999.00
2016-09-04T07:26:25.396Z,999.00
2016-09-04T07:27:25.874Z,999.00
2016-09-04T07:28:26.389Z,999.00
2016-09-04T07:29:26.751Z,999.00
2016-09-04T07:30:27.271Z,999.00
2016-09-04T07:31:27.776Z,999.00
2016-09-04T07:32:28.286Z,999.00
2016-09-04T07:33:28.801Z,999.00
2016-09-04T07:34:29.313Z,999.00
2016-09-04T07:35:29.825Z,999.00
2016-09-04T07:36:30.349Z,999.00
2016-09-04T07:37:31.004Z,999.00
2016-09-04T07:38:31.508Z,999.00
2016-09-04T07:39:31.905Z,999.00
2016-09-04T07:40:32.396Z,999.00
2016-09-04T07:41:32.891Z,999.00
2016-09-04T07:42:33.404Z,999.00
2016-09-04T07:43:33.916Z,999.00
2016-09-04T07:44:34.425Z,999.00
2016-09-04T07:45:34.939Z,999.00
2016-09-04T07:46:35.451Z,999.00
2016-09-04T07:47:35.964Z,999.00
2016-09-04T07:48:36.480Z,999.00
2016-09-04T07:49:36.986Z,999.00
2016-09-04T07:50:37.493Z,999.00
2016-09-04T07:51:38.007Z,999.00
2016-09-04T07:52:38.523Z,999.00
2016-09-04T07:53:39.069Z,999.00
2016-09-04T07:54:39.543Z,999.00
2016-09-04T07:55:40.086Z,999.00
2016-09-04T07:56:40.576Z,999.00
2016-09-04T07:57:41.082Z,999.00
2016-09-04T07:58:41.598Z,999.00
2016-09-04T07:59:42.114Z,999.00
2016-09-04T08:00:42.634Z,999.00
2016-09-04T08:01:43.142Z,999.00
2016-09-04T08:02:43.654Z,999.00
2016-09-04T08:03:44.170Z,999.00
2016-09-04T08:04:44.692Z,999.00
2016-09-04T08:05:45.196Z,999.00
2016-09-04T08:06:45.708Z,999.00
2016-09-04T08:07:46.249Z,999.00
2016-09-04T08:08:46.735Z,999.00
2016-09-04T08:09:47.245Z,999.00
2016-09-04T08:10:47.762Z,999.00
2016-09-04T08:11:48.275Z,999.00
2016-09-04T08:12:48.786Z,999.00
2016-09-04T08:13:49.306Z,999.00
2016-09-04T08:14:49.808Z,999.00
2016-09-04T08:15:50.332Z,999.00
2016-09-04T08:16:50.831Z,999.00
2016-09-04T08:17:51.348Z,999.00
2016-09-04T08:18:51.862Z,999.00
2016-09-04T08:19:52.369Z,999.00
2016-09-04T08:20:53.032Z,999.00
2016-09-04T08:21:53.546Z,999.00
2016-09-04T08:22:53.939Z,999.00
2016-09-04T08:23:54.424Z,999.00
2016-09-04T08:24:54.940Z,999.00
2016-09-04T08:25:55.450Z,999.00
2016-09-04T08:26:55.961Z,999.00
2016-09-04T08:27:56.466Z,999.00
2016-09-04T08:28:56.982Z,999.00
2016-09-04T08:29:57.493Z,999.00
2016-09-04T08:30:58.154Z,999.00
2016-09-04T08:31:58.519Z,999.00
2016-09-04T08:32:59.036Z,999.00
2016-09-04T08:33:59.544Z,999.00
2016-09-04T08:35:00.062Z,999.00
2016-09-04T08:36:00.596Z,999.00
2016-09-04T08:37:01.097Z,999.00
2016-09-04T08:38:01.762Z,999.00
2016-09-04T08:39:02.275Z,999.00
2016-09-04T08:40:02.636Z,999.00
2016-09-04T08:41:03.152Z,999.00
2016-09-04T08:42:03.671Z,999.00
2016-09-04T08:43:04.177Z,999.00
2016-09-04T08:44:04.686Z,999.00
2016-09-04T08:45:05.196Z,999.00
2016-09-04T08:46:05.705Z,999.00
2016-09-04T08:47:06.221Z,999.00
2016-09-04T08:48:07.928Z,999.00
2016-09-04T08:49:07.246Z,999.00
2016-09-04T08:50:07.776Z,999.00
2016-09-04T08:51:08.268Z,999.00
2016-09-04T08:52:08.795Z,999.00
2016-09-04T08:53:09.320Z,999.00
2016-09-04T08:54:09.803Z,999.00
2016-09-04T08:55:10.316Z,999.00
2016-09-04T08:56:10.827Z,999.00
2016-09-04T08:57:11.339Z,999.00
2016-09-04T08:58:11.851Z,999.00
2016-09-04T08:59:12.369Z,999.00
2016-09-04T09:00:12.878Z,999.00
2016-09-04T09:01:13.412Z,999.00
2016-09-04T09:02:13.906Z,999.00
2016-09-04T09:03:14.411Z,999.00
2016-09-04T09:04:14.923Z,999.00
2016-09-04T09:05:15.436Z,999.00
2016-09-04T09:06:15.970Z,999.00
2016-09-04T09:07:16.485Z,999.00
2016-09-04T09:08:16.978Z,999.00
2016-09-04T09:09:17.492Z,999.00
2016-09-04T09:10:18.000Z,999.00
2016-09-04T09:11:18.516Z,999.00
2016-09-04T09:12:19.026Z,999.00
2016-09-04T09:13:19.559Z,999.00
2016-09-04T09:14:20.063Z,999.00
2016-09-04T09:15:20.601Z,999.00
2016-09-04T09:16:21.083Z,999.00
2016-09-04T09:17:21.602Z,999.00
2016-09-04T09:18:22.133Z,999.00
2016-09-04T09:19:23.667Z,999.00
2016-09-04T09:20:23.156Z,999.00
2016-09-04T09:21:23.640Z,999.00
2016-09-04T09:22:24.150Z,999.00
2016-09-04T09:23:24.660Z,999.00
2016-09-04T09:24:25.171Z,999.00
2016-09-04T09:25:25.690Z,999.00
2016-09-04T09:26:26.194Z,999.00
2016-09-04T09:27:26.853Z,999.00
2016-09-04T09:28:27.216Z,999.00
2016-09-04T09:29:27.730Z,999.00
2016-09-04T09:30:28.241Z,999.00
2016-09-04T09:31:28.753Z,999.00
2016-09-04T09:32:29.441Z,999.00
2016-09-04T09:33:29.785Z,999.00
2016-09-04T09:34:30.291Z,999.00
2016-09-04T09:35:30.806Z,999.00
2016-09-04T09:36:31.316Z,999.00
2016-09-04T09:37:31.825Z,999.00
2016-09-04T09:38:32.338Z,999.00
2016-09-04T09:39:32.851Z,999.00
2016-09-04T09:40:33.363Z,999.00
2016-09-04T09:41:33.899Z,999.00
2016-09-04T09:42:34.390Z,999.00
2016-09-04T09:43:34.898Z,999.00
2016-09-04T09:44:35.418Z,999.00
2016-09-04T09:45:35.928Z,999.00
2016-09-04T09:46:36.446Z,999.00
2016-09-04T09:47:36.954Z,999.00
2016-09-04T09:48:37.472Z,999.00
2016-09-04T09:49:38.134Z,999.00
2016-09-04T09:50:38.497Z,999.00
2016-09-04T09:51:39.006Z,999.00
2016-09-04T09:52:39.521Z,999.00
2016-09-04T09:53:40.042Z,999.00
2016-09-04T09:54:40.548Z,999.00
2016-09-04T09:55:41.064Z,999.00
2016-09-04T09:56:41.587Z,999.00
2016-09-04T09:57:42.083Z,999.00
2016-09-04T09:58:42.610Z,999.00
2016-09-04T09:59:43.106Z,999.00
2016-09-04T10:00:43.615Z,999.00
2016-09-04T10:01:44.157Z,999.00
2016-09-04T10:02:44.641Z,999.00
2016-09-04T10:03:45.153Z,999.00
2016-09-04T10:04:45.659Z,999.00
2016-09-04T10:05:46.173Z,999.00
2016-09-04T10:06:46.682Z,999.00
2016-09-04T10:07:47.195Z,999.00
2016-09-04T10:08:47.706Z,999.00
2016-09-04T10:09:48.368Z,999.00
2016-09-04T10:10:48.744Z,999.00
2016-09-04T10:11:49.243Z,999.00
2016-09-04T10:12:49.777Z,999.00
2016-09-04T10:13:50.411Z,999.00
2016-09-04T10:14:50.775Z,999.00
2016-09-04T10:15:51.281Z,999.00
2016-09-04T10:16:51.786Z,999.00
2016-09-04T10:17:52.450Z,999.00
2016-09-04T10:18:52.810Z,999.00
2016-09-04T10:19:53.324Z,999.00
2016-09-04T10:20:53.836Z,999.00
2016-09-04T10:21:54.349Z,999.00
2016-09-04T10:22:55.019Z,999.00
2016-09-04T10:23:55.375Z,999.00
2016-09-04T10:24:55.899Z,999.00
2016-09-04T10:25:56.416Z,999.00
2016-09-04T10:26:56.928Z,999.00
2016-09-04T10:27:57.591Z,999.00
2016-09-04T10:28:57.945Z,999.00
2016-09-04T10:29:58.458Z,999.00
2016-09-04T10:30:58.975Z,999.00
2016-09-04T10:31:59.483Z,999.00
2016-09-04T10:32:59.990Z,999.00
2016-09-04T10:34:00.499Z,999.00
2016-09-04T10:35:01.015Z,999.00
2016-09-04T10:36:01.529Z,999.00
2016-09-04T10:37:02.039Z,999.00
2016-09-04T10:38:02.565Z,999.00
2016-09-04T10:39:03.065Z,999.00
2016-09-04T10:40:03.581Z,999.00
2016-09-04T10:41:04.691Z,999.00
2016-09-04T10:42:04.606Z,999.00
2016-09-04T10:43:05.114Z,999.00
2016-09-04T10:44:05.625Z,999.00
2016-09-04T10:45:06.139Z,999.00
2016-09-04T10:46:06.653Z,999.00
2016-09-04T10:47:07.164Z,999.00
2016-09-04T10:48:07.834Z,999.00
2016-09-04T10:49:08.191Z,999.00
2016-09-04T10:50:08.709Z,999.00
2016-09-04T10:51:09.359Z,999.00
2016-09-04T10:52:09.721Z,999.00
2016-09-04T10:53:10.234Z,999.00
2016-09-04T10:54:10.745Z,999.00
2016-09-04T10:55:11.280Z,999.00
2016-09-04T10:56:11.770Z,999.00
2016-09-04T10:57:12.280Z,999.00
2016-09-04T10:58:12.802Z,999.00
2016-09-04T10:59:13.312Z,999.00
2016-09-04T11:00:13.830Z,999.00
2016-09-04T11:01:14.347Z,999.00
2016-09-04T11:02:14.862Z,999.00
2016-09-04T11:03:15.370Z,999.00
2016-09-04T11:04:15.906Z,999.00
2016-09-04T11:05:16.425Z,999.00
2016-09-04T11:06:16.907Z,999.00
2016-09-04T11:07:17.420Z,999.00
2016-09-04T11:08:17.929Z,999.00
2016-09-04T11:09:18.447Z,999.00
2016-09-04T11:10:18.959Z,999.00
2016-09-04T11:11:19.471Z,999.00
2016-09-04T11:12:19.986Z,999.00
2016-09-04T11:13:20.502Z,999.00
2016-09-04T11:14:21.020Z,999.00
2016-09-04T11:15:21.533Z,999.00
2016-09-04T11:16:22.057Z,999.00
2016-09-04T11:17:22.565Z,999.00
2016-09-04T11:18:23.077Z,999.00
2016-09-04T11:19:23.592Z,999.00
2016-09-04T11:20:24.111Z,999.00
2016-09-04T11:21:24.617Z,999.00
2016-09-04T11:22:25.137Z,999.00
2016-09-04T11:23:25.792Z,999.00
2016-09-04T11:24:26.192Z,999.00
2016-09-04T11:25:26.667Z,999.00
2016-09-04T11:26:27.182Z,999.00
2016-09-04T11:27:27.689Z,999.00
2016-09-04T11:28:28.204Z,999.00
2016-09-04T11:29:28.711Z,999.00
2016-09-04T11:30:29.221Z,999.00
2016-09-04T11:31:29.733Z,999.00
2016-09-04T11:32:30.240Z,999.00
2016-09-04T11:33:30.758Z,999.00
2016-09-04T11:34:31.284Z,999.00
2016-09-04T11:35:31.791Z,999.00
2016-09-04T11:36:32.303Z,999.00
2016-09-04T11:37:32.827Z,999.00
2016-09-04T11:38:33.341Z,999.00
2016-09-04T11:39:33.849Z,999.00
2016-09-04T11:40:34.364Z,999.00
2016-09-04T11:41:34.887Z,999.00
2016-09-04T11:42:35.389Z,999.00
2016-09-04T11:43:35.897Z,999.00
2016-09-04T11:44:36.410Z,999.00
2016-09-04T11:45:36.921Z,999.00
2016-09-04T11:46:37.445Z,999.00
2016-09-04T11:47:37.957Z,999.00
2016-09-04T11:48:38.462Z,999.00
2016-09-04T11:49:39.159Z,999.00
2016-09-04T11:50:39.500Z,999.00
2016-09-04T11:51:40.001Z,999.00
2016-09-04T11:52:40.663Z,999.00
2016-09-04T11:53:41.052Z,999.00
2016-09-04T11:54:41.558Z,999.00
2016-09-04T11:55:42.076Z,999.00
2016-09-04T11:56:42.584Z,999.00
2016-09-04T11:57:43.104Z,999.00
2016-09-04T11:58:43.598Z,999.00
2016-09-04T11:59:44.111Z,976.00
2016-09-04T12:00:44.625Z,927.00
2016-09-04T12:01:45.131Z,884.00
2016-09-04T12:02:45.641Z,855.00
2016-09-04T12:03:46.157Z,814.00
2016-09-04T12:04:46.670Z,783.00
2016-09-04T12:05:47.181Z,784.00
2016-09-04T12:06:47.692Z,784.00
2016-09-04T12:07:48.234Z,784.00
2016-09-04T12:08:48.720Z,760.00
2016-09-04T12:09:49.233Z,736.00
2016-09-04T12:10:49.744Z,736.00
2016-09-04T12:11:50.263Z,761.00
2016-09-04T12:12:50.807Z,763.00
2016-09-04T12:13:51.448Z,780.00
2016-09-04T12:14:51.814Z,763.00
2016-09-04T12:15:52.327Z,765.00
2016-09-04T12:16:52.843Z,773.00
2016-09-04T12:17:53.350Z,763.00
2016-09-04T12:18:53.863Z,714.00
2016-09-04T12:19:54.375Z,694.00
2016-09-04T12:20:54.901Z,706.00
2016-09-04T12:21:55.391Z,700.00
2016-09-04T12:22:55.905Z,694.00
2016-09-04T12:23:56.416Z,688.00
2016-09-04T12:24:56.934Z,656.00
2016-09-04T12:25:57.444Z,656.00
2016-09-04T12:26:57.953Z,647.00
2016-09-04T12:27:58.468Z,620.00
2016-09-04T12:28:58.978Z,671.00
2016-09-04T12:29:59.491Z,740.00
2016-09-04T12:31:00.001Z,844.00
2016-09-04T12:32:00.522Z,962.00
2016-09-04T12:33:01.027Z,999.00
2016-09-04T12:34:01.566Z,999.00
2016-09-04T12:35:02.046Z,999.00
2016-09-04T12:36:02.558Z,999.00
2016-09-04T12:37:03.217Z,999.00
2016-09-04T12:38:03.580Z,999.00
2016-09-04T12:39:04.089Z,999.00
2016-09-04T12:40:04.603Z,999.00
2016-09-04T12:41:05.116Z,999.00
2016-09-04T12:42:05.634Z,999.00
2016-09-04T12:43:06.134Z,999.00
2016-09-04T12:44:06.667Z,999.00
2016-09-04T12:45:07.156Z,999.00
2016-09-04T12:46:07.670Z,999.00
2016-09-04T12:47:08.184Z,999.00
2016-09-04T12:48:08.698Z,999.00
2016-09-04T12:49:09.218Z,999.00
2016-09-04T12:50:09.733Z,999.00
2016-09-04T12:51:10.245Z,999.00
2016-09-04T12:52:10.909Z,999.00